MSR876 DTTA-HEAX
Flight info
| Callsign | MSR876 |
|---|---|
| Flight time | N/A |
| Altitude | 37000 |
| Route | DIDON2C DIDON UM978 SONAK M978 GZO M980 LOSUL M855 NABSI |
| Aircraft | B77W/H-SDE1E2E3FGHIJ2J3J4J5M1RWXY/LB1D1 |
Departure
| Time | 2026-05-05 14:29 |
|---|---|
| Airport | Tunis Carthage International Airport (DTTA) |
Arrival
| Time | N/A |
|---|---|
| Airport | Alexandria International Airport (HEAX) |
| Time | Latitude | Longitude | Altitude | Speed | Heading |
|---|---|---|---|---|---|
| 2026-05-05 14:05 | 36.84666 | 10.21955 | 28 ft | 0 kts | 198° |
| 2026-05-05 14:14 | 36.84667 | 10.21955 | 28 ft | 0 kts | 198° |
| 2026-05-05 14:23 | 36.84675 | 10.21958 | 28 ft | 2 kts | 198° |
| 2026-05-05 14:23 | 36.84690 | 10.21965 | 28 ft | 2 kts | 191° |
| 2026-05-05 14:23 | 36.84707 | 10.21966 | 28 ft | 2 kts | 158° |
| 2026-05-05 14:24 | 36.84720 | 10.21955 | 28 ft | 2 kts | 123° |
| 2026-05-05 14:24 | 36.84727 | 10.21940 | 29 ft | 0 kts | 96° |
| 2026-05-05 14:25 | 36.84725 | 10.21952 | 28 ft | 7 kts | 96° |
| 2026-05-05 14:25 | 36.84724 | 10.21973 | 28 ft | 0 kts | 96° |
| 2026-05-05 14:26 | 36.84724 | 10.21987 | 28 ft | 10 kts | 88° |
| 2026-05-05 14:26 | 36.84832 | 10.22108 | 29 ft | 27 kts | 43° |
| 2026-05-05 14:26 | 36.84887 | 10.22326 | 29 ft | 27 kts | 60° |
| 2026-05-05 14:26 | 36.85020 | 10.22304 | 30 ft | 22 kts | 298° |
| 2026-05-05 14:27 | 36.85078 | 10.22123 | 31 ft | 22 kts | 292° |
| 2026-05-05 14:27 | 36.85136 | 10.21945 | 32 ft | 22 kts | 293° |
| 2026-05-05 14:27 | 36.85205 | 10.21772 | 33 ft | 20 kts | 303° |
| 2026-05-05 14:27 | 36.85285 | 10.21723 | 33 ft | 14 kts | 7° |
| 2026-05-05 14:28 | 36.85377 | 10.21752 | 34 ft | 14 kts | 27° |
| 2026-05-05 14:28 | 36.85389 | 10.21875 | 34 ft | 30 kts | 108° |
| 2026-05-05 14:28 | 36.85199 | 10.22459 | 32 ft | 113 kts | 112° |
| 2026-05-05 14:28 | 36.84806 | 10.23650 | 39 ft | 178 kts | 112° |
| 2026-05-05 14:29 | 36.84325 | 10.25067 | 883 ft | 168 kts | 113° |
| 2026-05-05 14:29 | 36.83791 | 10.26406 | 1726 ft | 176 kts | 118° |
| 2026-05-05 14:29 | 36.83179 | 10.27798 | 2166 ft | 198 kts | 118° |
| 2026-05-05 14:29 | 36.82468 | 10.29420 | 2417 ft | 229 kts | 120° |
| 2026-05-05 14:30 | 36.81672 | 10.31247 | 2939 ft | 247 kts | 120° |
| 2026-05-05 14:30 | 36.80837 | 10.33180 | 3791 ft | 254 kts | 120° |
| 2026-05-05 14:30 | 36.80013 | 10.35087 | 4668 ft | 259 kts | 120° |
| 2026-05-05 14:30 | 36.79149 | 10.37086 | 5532 ft | 265 kts | 120° |
| 2026-05-05 14:31 | 36.78394 | 10.39183 | 6243 ft | 273 kts | 104° |
| 2026-05-05 14:31 | 36.78451 | 10.41585 | 6972 ft | 282 kts | 78° |
| 2026-05-05 14:31 | 36.79007 | 10.43951 | 7741 ft | 287 kts | 76° |
| 2026-05-05 14:31 | 36.79580 | 10.46359 | 8560 ft | 292 kts | 75° |
| 2026-05-05 14:32 | 36.80158 | 10.48788 | 9395 ft | 295 kts | 75° |
| 2026-05-05 14:32 | 36.80482 | 10.51278 | 10012 ft | 298 kts | 97° |
| 2026-05-05 14:32 | 36.80061 | 10.53839 | 10374 ft | 312 kts | 106° |
| 2026-05-05 14:32 | 36.79519 | 10.56571 | 10566 ft | 340 kts | 105° |
| 2026-05-05 14:33 | 36.78948 | 10.59518 | 10778 ft | 367 kts | 105° |
| 2026-05-05 14:33 | 36.78338 | 10.62697 | 11286 ft | 383 kts | 105° |
| 2026-05-05 14:33 | 36.77715 | 10.65982 | 12060 ft | 394 kts | 104° |
| 2026-05-05 14:33 | 36.77084 | 10.69330 | 13007 ft | 400 kts | 104° |
| 2026-05-05 14:34 | 36.76447 | 10.72713 | 13964 ft | 406 kts | 104° |
| 2026-05-05 14:34 | 36.75800 | 10.76160 | 14854 ft | 413 kts | 104° |
| 2026-05-05 14:34 | 36.75139 | 10.79674 | 15781 ft | 419 kts | 104° |
| 2026-05-05 14:34 | 36.74479 | 10.83171 | 16644 ft | 425 kts | 104° |
| 2026-05-05 14:35 | 36.73786 | 10.86840 | 17469 ft | 433 kts | 104° |
| 2026-05-05 14:35 | 36.73108 | 10.90423 | 18242 ft | 439 kts | 104° |
| 2026-05-05 14:35 | 36.72405 | 10.94132 | 19044 ft | 444 kts | 104° |
| 2026-05-05 14:35 | 36.71695 | 10.97865 | 19857 ft | 449 kts | 104° |
| 2026-05-05 14:36 | 36.70979 | 11.01632 | 20619 ft | 455 kts | 104° |
| 2026-05-05 14:36 | 36.70255 | 11.05452 | 21366 ft | 460 kts | 104° |
| 2026-05-05 14:36 | 36.69533 | 11.09354 | 22073 ft | 465 kts | 104° |
| 2026-05-05 14:36 | 36.68813 | 11.13277 | 22735 ft | 470 kts | 104° |
| 2026-05-05 14:37 | 36.68094 | 11.17198 | 23391 ft | 475 kts | 104° |
| 2026-05-05 14:37 | 36.67356 | 11.21211 | 24032 ft | 479 kts | 104° |
| 2026-05-05 14:37 | 36.66607 | 11.25273 | 24666 ft | 484 kts | 104° |
| 2026-05-05 14:37 | 36.65847 | 11.29371 | 25262 ft | 488 kts | 104° |
| 2026-05-05 14:38 | 36.65082 | 11.33496 | 25821 ft | 493 kts | 104° |
| 2026-05-05 14:38 | 36.64301 | 11.37677 | 26357 ft | 498 kts | 104° |
| 2026-05-05 14:38 | 36.63514 | 11.41892 | 26897 ft | 502 kts | 104° |
| 2026-05-05 14:38 | 36.62721 | 11.46145 | 27392 ft | 507 kts | 104° |
| 2026-05-05 14:39 | 36.61926 | 11.50395 | 27870 ft | 511 kts | 104° |
| 2026-05-05 14:39 | 36.61121 | 11.54670 | 28343 ft | 515 kts | 104° |
| 2026-05-05 14:39 | 36.60317 | 11.58913 | 28784 ft | 518 kts | 104° |
| 2026-05-05 14:39 | 36.59486 | 11.63288 | 29201 ft | 522 kts | 104° |
| 2026-05-05 14:40 | 36.58654 | 11.67653 | 29579 ft | 525 kts | 104° |
| 2026-05-05 14:40 | 36.57812 | 11.72069 | 29958 ft | 528 kts | 104° |
| 2026-05-05 14:40 | 36.56970 | 11.76486 | 30368 ft | 529 kts | 104° |
| 2026-05-05 14:40 | 36.56124 | 11.80918 | 30899 ft | 527 kts | 104° |
| 2026-05-05 14:41 | 36.55295 | 11.85255 | 31525 ft | 523 kts | 104° |
| 2026-05-05 14:41 | 36.54458 | 11.89618 | 32021 ft | 522 kts | 104° |
| 2026-05-05 14:41 | 36.53613 | 11.94008 | 32466 ft | 522 kts | 104° |
| 2026-05-05 14:41 | 36.52769 | 11.98390 | 32915 ft | 521 kts | 104° |
| 2026-05-05 14:42 | 36.51935 | 12.02712 | 33341 ft | 520 kts | 104° |
| 2026-05-05 14:42 | 36.51096 | 12.07047 | 33736 ft | 519 kts | 104° |
| 2026-05-05 14:42 | 36.50251 | 12.11408 | 34162 ft | 518 kts | 104° |
| 2026-05-05 14:42 | 36.49392 | 12.15740 | 34596 ft | 517 kts | 105° |
| 2026-05-05 14:43 | 36.48493 | 12.20023 | 34950 ft | 517 kts | 105° |
| 2026-05-05 14:43 | 36.47563 | 12.24331 | 35271 ft | 517 kts | 106° |
| 2026-05-05 14:43 | 36.46623 | 12.28643 | 35588 ft | 518 kts | 106° |
| 2026-05-05 14:43 | 36.45682 | 12.32963 | 35921 ft | 517 kts | 106° |
| 2026-05-05 14:44 | 36.44749 | 12.37264 | 36234 ft | 517 kts | 106° |
| 2026-05-05 14:44 | 36.43816 | 12.41575 | 36538 ft | 517 kts | 106° |
| 2026-05-05 14:44 | 36.42888 | 12.45876 | 36806 ft | 518 kts | 106° |
| 2026-05-05 14:44 | 36.41971 | 12.50131 | 37013 ft | 520 kts | 106° |
| 2026-05-05 14:45 | 36.40132 | 12.58636 | 37043 ft | 513 kts | 106° |
| 2026-05-05 14:45 | 36.38303 | 12.67052 | 37056 ft | 503 kts | 106° |
| 2026-05-05 14:46 | 36.36471 | 12.75449 | 37060 ft | 504 kts | 106° |
| 2026-05-05 14:46 | 36.34630 | 12.83856 | 37059 ft | 506 kts | 106° |
| 2026-05-05 14:47 | 36.32792 | 12.92228 | 37058 ft | 507 kts | 106° |
| 2026-05-05 14:47 | 36.30936 | 13.00647 | 37061 ft | 508 kts | 106° |
| 2026-05-05 14:48 | 36.29067 | 13.09091 | 37053 ft | 509 kts | 106° |
| 2026-05-05 14:48 | 36.27190 | 13.17552 | 37055 ft | 509 kts | 106° |
| 2026-05-05 14:49 | 36.25315 | 13.25951 | 37062 ft | 509 kts | 107° |
| 2026-05-05 14:49 | 36.23418 | 13.34392 | 37065 ft | 508 kts | 107° |
| 2026-05-05 14:50 | 36.21516 | 13.42832 | 37065 ft | 508 kts | 107° |
| 2026-05-05 14:50 | 36.19627 | 13.51182 | 37063 ft | 507 kts | 107° |
| 2026-05-05 14:51 | 36.17732 | 13.59531 | 37064 ft | 507 kts | 107° |
| 2026-05-05 14:51 | 36.15840 | 13.67842 | 37064 ft | 507 kts | 107° |
| 2026-05-05 14:52 | 36.13927 | 13.76214 | 37066 ft | 507 kts | 107° |
| 2026-05-05 14:52 | 36.12007 | 13.84590 | 37071 ft | 507 kts | 107° |
| 2026-05-05 14:53 | 36.10089 | 13.92930 | 37074 ft | 508 kts | 107° |
| 2026-05-05 14:53 | 36.08163 | 14.01269 | 37073 ft | 508 kts | 107° |
| 2026-05-05 14:54 | 36.06545 | 14.08258 | 37074 ft | 508 kts | 107° |
| 2026-05-05 14:54 | 36.04597 | 14.16649 | 37074 ft | 508 kts | 107° |
| 2026-05-05 14:55 | 36.02595 | 14.25014 | 37073 ft | 508 kts | 109° |
| 2026-05-05 14:55 | 36.00300 | 14.33210 | 37073 ft | 507 kts | 111° |
| 2026-05-05 14:56 | 35.97936 | 14.41404 | 37074 ft | 507 kts | 111° |
| 2026-05-05 14:56 | 35.95625 | 14.49594 | 37075 ft | 507 kts | 110° |
| 2026-05-05 14:57 | 35.93330 | 14.57832 | 37075 ft | 507 kts | 110° |
| 2026-05-05 14:57 | 35.91057 | 14.65978 | 37074 ft | 507 kts | 110° |
| 2026-05-05 14:58 | 35.88757 | 14.74182 | 37074 ft | 507 kts | 110° |
| 2026-05-05 14:58 | 35.86441 | 14.82413 | 37071 ft | 508 kts | 110° |
| 2026-05-05 14:59 | 35.84132 | 14.90594 | 37077 ft | 508 kts | 110° |
| 2026-05-05 14:59 | 35.81805 | 14.98804 | 37075 ft | 509 kts | 110° |
| 2026-05-05 15:00 | 35.79858 | 15.05664 | 37073 ft | 510 kts | 110° |
| 2026-05-05 15:00 | 35.77132 | 15.15239 | 37075 ft | 510 kts | 110° |
| 2026-05-05 15:01 | 35.74775 | 15.23485 | 37075 ft | 511 kts | 110° |
| 2026-05-05 15:01 | 35.72417 | 15.31710 | 37071 ft | 511 kts | 110° |
| 2026-05-05 15:02 | 35.70050 | 15.39962 | 37073 ft | 511 kts | 110° |
| 2026-05-05 15:02 | 35.67681 | 15.48181 | 37075 ft | 511 kts | 110° |
| 2026-05-05 15:03 | 35.65307 | 15.56395 | 37075 ft | 511 kts | 110° |
| 2026-05-05 15:03 | 35.62816 | 15.64509 | 37072 ft | 511 kts | 115° |
| 2026-05-05 15:04 | 35.59936 | 15.72433 | 37079 ft | 510 kts | 116° |
| 2026-05-05 15:04 | 35.57034 | 15.80290 | 37072 ft | 510 kts | 116° |
| 2026-05-05 15:05 | 35.52716 | 15.92082 | 37072 ft | 510 kts | 115° |
| 2026-05-05 15:06 | 35.49832 | 15.99979 | 37074 ft | 510 kts | 115° |
| 2026-05-05 15:06 | 35.46952 | 16.07843 | 37066 ft | 511 kts | 115° |
| 2026-05-05 15:07 | 35.44157 | 16.15458 | 37063 ft | 511 kts | 115° |
| 2026-05-05 15:07 | 35.41406 | 16.22929 | 37065 ft | 511 kts | 115° |
| 2026-05-05 15:08 | 35.38701 | 16.30257 | 37066 ft | 511 kts | 115° |
| 2026-05-05 15:08 | 35.35919 | 16.37783 | 37064 ft | 512 kts | 115° |
| 2026-05-05 15:09 | 35.33071 | 16.45462 | 37062 ft | 513 kts | 115° |
| 2026-05-05 15:09 | 35.30135 | 16.53364 | 37065 ft | 514 kts | 115° |
| 2026-05-05 15:10 | 35.27192 | 16.61263 | 37066 ft | 514 kts | 115° |
| 2026-05-05 15:10 | 35.24235 | 16.69179 | 37067 ft | 515 kts | 115° |
| 2026-05-05 15:11 | 35.21275 | 16.77084 | 37065 ft | 516 kts | 115° |
| 2026-05-05 15:11 | 35.18294 | 16.85026 | 37065 ft | 516 kts | 115° |
| 2026-05-05 15:12 | 35.15298 | 16.92986 | 37065 ft | 517 kts | 115° |
| 2026-05-05 15:12 | 35.12284 | 17.00977 | 37056 ft | 517 kts | 115° |
| 2026-05-05 15:13 | 35.09279 | 17.08925 | 37055 ft | 517 kts | 115° |
| 2026-05-05 15:13 | 35.06259 | 17.16890 | 37061 ft | 517 kts | 115° |
| 2026-05-05 15:14 | 35.03242 | 17.24829 | 37065 ft | 516 kts | 116° |
| 2026-05-05 15:14 | 35.00221 | 17.32759 | 37064 ft | 516 kts | 115° |
| 2026-05-05 15:15 | 34.97193 | 17.40691 | 37065 ft | 515 kts | 116° |
| 2026-05-05 15:15 | 34.94164 | 17.48604 | 37063 ft | 515 kts | 116° |
| 2026-05-05 15:16 | 34.91159 | 17.56433 | 37060 ft | 515 kts | 116° |
| 2026-05-05 15:16 | 34.88118 | 17.64343 | 37065 ft | 516 kts | 116° |
| 2026-05-05 15:17 | 34.85075 | 17.72232 | 37062 ft | 516 kts | 116° |
| 2026-05-05 15:17 | 34.82034 | 17.80100 | 37056 ft | 517 kts | 116° |
| 2026-05-05 15:18 | 34.78962 | 17.88023 | 37057 ft | 518 kts | 116° |
| 2026-05-05 15:18 | 34.75885 | 17.95950 | 37054 ft | 518 kts | 116° |
| 2026-05-05 15:19 | 34.72805 | 18.03862 | 37058 ft | 518 kts | 116° |
| 2026-05-05 15:19 | 34.69737 | 18.11722 | 37058 ft | 518 kts | 116° |
| 2026-05-05 15:20 | 34.66642 | 18.19635 | 37054 ft | 518 kts | 116° |
| 2026-05-05 15:20 | 34.63541 | 18.27543 | 37055 ft | 519 kts | 116° |
| 2026-05-05 15:21 | 34.60430 | 18.35454 | 37047 ft | 519 kts | 116° |
| 2026-05-05 15:21 | 34.57316 | 18.43359 | 37047 ft | 519 kts | 116° |
| 2026-05-05 15:22 | 34.54196 | 18.51261 | 37045 ft | 518 kts | 116° |
| 2026-05-05 15:22 | 34.51078 | 18.59141 | 37043 ft | 518 kts | 116° |
| 2026-05-05 15:23 | 34.47955 | 18.67007 | 37047 ft | 518 kts | 116° |
| 2026-05-05 15:23 | 34.44829 | 18.74867 | 37042 ft | 517 kts | 116° |
| 2026-05-05 15:24 | 34.41698 | 18.82723 | 37048 ft | 518 kts | 116° |
| 2026-05-05 15:24 | 34.38559 | 18.90575 | 37046 ft | 518 kts | 116° |
| 2026-05-05 15:25 | 34.35412 | 18.98433 | 37044 ft | 519 kts | 116° |
| 2026-05-05 15:25 | 34.32259 | 19.06297 | 37032 ft | 520 kts | 116° |
| 2026-05-05 15:26 | 34.29117 | 19.14173 | 37039 ft | 520 kts | 116° |
| 2026-05-05 15:26 | 34.25976 | 19.22047 | 37030 ft | 520 kts | 116° |
| 2026-05-05 15:27 | 34.22827 | 19.29924 | 37030 ft | 520 kts | 116° |
| 2026-05-05 15:27 | 34.19670 | 19.37796 | 37026 ft | 521 kts | 116° |
| 2026-05-05 15:28 | 34.16504 | 19.45668 | 37029 ft | 522 kts | 116° |
| 2026-05-05 15:28 | 34.13329 | 19.53546 | 37027 ft | 522 kts | 116° |
| 2026-05-05 15:29 | 34.10148 | 19.61415 | 37028 ft | 522 kts | 116° |
| 2026-05-05 15:29 | 34.06984 | 19.69226 | 37027 ft | 522 kts | 116° |
| 2026-05-05 15:30 | 34.03774 | 19.77140 | 37020 ft | 522 kts | 116° |
| 2026-05-05 15:30 | 34.00600 | 19.84944 | 37017 ft | 522 kts | 116° |
| 2026-05-05 15:31 | 33.97380 | 19.92842 | 37020 ft | 521 kts | 116° |
| 2026-05-05 15:31 | 33.94178 | 20.00676 | 37019 ft | 521 kts | 116° |
| 2026-05-05 15:32 | 33.90995 | 20.08449 | 37020 ft | 521 kts | 116° |
| 2026-05-05 15:32 | 33.87762 | 20.16320 | 37019 ft | 521 kts | 116° |
| 2026-05-05 15:33 | 33.84547 | 20.24132 | 37018 ft | 521 kts | 116° |
| 2026-05-05 15:33 | 33.81345 | 20.31892 | 37018 ft | 521 kts | 116° |
| 2026-05-05 15:34 | 33.78123 | 20.39689 | 37042 ft | 522 kts | 116° |
| 2026-05-05 15:34 | 33.74891 | 20.47493 | 37032 ft | 522 kts | 116° |
| 2026-05-05 15:35 | 33.71649 | 20.55299 | 37041 ft | 522 kts | 116° |
| 2026-05-05 15:35 | 33.68399 | 20.63096 | 37041 ft | 522 kts | 116° |
| 2026-05-05 15:36 | 33.65151 | 20.70889 | 37032 ft | 522 kts | 116° |
| 2026-05-05 15:36 | 33.61897 | 20.78679 | 37033 ft | 522 kts | 116° |
| 2026-05-05 15:37 | 33.58637 | 20.86457 | 37038 ft | 522 kts | 116° |
| 2026-05-05 15:37 | 33.55375 | 20.94228 | 37033 ft | 522 kts | 116° |
| 2026-05-05 15:38 | 33.52104 | 21.01996 | 37034 ft | 522 kts | 116° |
| 2026-05-05 15:38 | 33.49382 | 21.08438 | 37033 ft | 522 kts | 116° |
| 2026-05-05 15:39 | 33.46098 | 21.16202 | 37033 ft | 522 kts | 116° |
| 2026-05-05 15:39 | 33.42812 | 21.23961 | 37038 ft | 522 kts | 116° |
| 2026-05-05 15:40 | 33.39517 | 21.31717 | 37046 ft | 523 kts | 116° |
| 2026-05-05 15:40 | 33.36216 | 21.39468 | 37031 ft | 523 kts | 116° |
| 2026-05-05 15:41 | 33.32914 | 21.47217 | 37045 ft | 522 kts | 116° |
| 2026-05-05 15:41 | 33.29605 | 21.54946 | 37031 ft | 522 kts | 116° |
| 2026-05-05 15:42 | 33.26297 | 21.62664 | 37041 ft | 522 kts | 116° |
| 2026-05-05 15:42 | 33.22986 | 21.70381 | 37032 ft | 522 kts | 116° |
| 2026-05-05 15:43 | 33.19670 | 21.78092 | 37038 ft | 522 kts | 116° |
| 2026-05-05 15:43 | 33.16344 | 21.85805 | 37040 ft | 522 kts | 116° |
| 2026-05-05 15:44 | 33.13012 | 21.93507 | 37042 ft | 522 kts | 117° |
| 2026-05-05 15:44 | 33.09676 | 22.01206 | 37036 ft | 522 kts | 117° |
| 2026-05-05 15:45 | 33.06334 | 22.08898 | 37033 ft | 522 kts | 117° |
| 2026-05-05 15:45 | 33.02994 | 22.16580 | 37033 ft | 522 kts | 117° |
| 2026-05-05 15:46 | 32.99648 | 22.24254 | 37042 ft | 522 kts | 117° |
| 2026-05-05 15:46 | 32.96316 | 22.31875 | 37043 ft | 522 kts | 117° |
| 2026-05-05 15:47 | 32.92955 | 22.39551 | 37044 ft | 523 kts | 117° |
| 2026-05-05 15:47 | 32.89593 | 22.47217 | 37032 ft | 522 kts | 117° |
| 2026-05-05 15:48 | 32.86226 | 22.54871 | 37033 ft | 522 kts | 117° |
| 2026-05-05 15:48 | 32.82857 | 22.62512 | 37044 ft | 522 kts | 117° |
| 2026-05-05 15:49 | 32.79487 | 22.70144 | 37045 ft | 521 kts | 117° |
| 2026-05-05 15:49 | 32.76089 | 22.77821 | 37046 ft | 521 kts | 117° |
| 2026-05-05 15:50 | 32.72733 | 22.85384 | 37049 ft | 521 kts | 117° |
| 2026-05-05 15:50 | 32.69349 | 22.92999 | 37047 ft | 521 kts | 118° |
| 2026-05-05 15:51 | 32.65958 | 23.00609 | 37047 ft | 521 kts | 118° |
| 2026-05-05 15:51 | 32.62565 | 23.08211 | 37048 ft | 522 kts | 118° |
| 2026-05-05 15:52 | 32.59160 | 23.15822 | 37054 ft | 522 kts | 118° |
| 2026-05-05 15:52 | 32.55752 | 23.23424 | 37059 ft | 522 kts | 118° |
| 2026-05-05 15:53 | 32.52336 | 23.31022 | 37063 ft | 522 kts | 118° |
| 2026-05-05 15:53 | 32.48919 | 23.38613 | 37065 ft | 522 kts | 118° |
| 2026-05-05 15:54 | 32.45498 | 23.46199 | 37065 ft | 523 kts | 118° |
| 2026-05-05 15:54 | 32.42066 | 23.53792 | 37066 ft | 523 kts | 118° |
| 2026-05-05 15:55 | 32.38624 | 23.61393 | 37065 ft | 524 kts | 118° |
| 2026-05-05 15:55 | 32.35176 | 23.68988 | 37068 ft | 524 kts | 118° |
| 2026-05-05 15:56 | 32.31721 | 23.76581 | 37066 ft | 524 kts | 118° |
| 2026-05-05 15:56 | 32.28260 | 23.84171 | 37075 ft | 525 kts | 119° |
| 2026-05-05 15:57 | 32.24796 | 23.91760 | 37075 ft | 525 kts | 119° |
| 2026-05-05 15:57 | 32.21326 | 23.99342 | 37082 ft | 525 kts | 119° |
| 2026-05-05 15:58 | 32.17853 | 24.06912 | 37083 ft | 524 kts | 119° |
| 2026-05-05 15:58 | 32.14377 | 24.14471 | 37082 ft | 524 kts | 119° |
| 2026-05-05 15:59 | 32.10899 | 24.22023 | 37099 ft | 524 kts | 119° |
| 2026-05-05 15:59 | 32.07417 | 24.29574 | 37101 ft | 524 kts | 119° |
| 2026-05-05 16:00 | 32.03929 | 24.37112 | 37099 ft | 524 kts | 119° |
| 2026-05-05 16:00 | 32.00441 | 24.44638 | 37102 ft | 523 kts | 119° |
| 2026-05-05 16:01 | 31.96946 | 24.52166 | 37109 ft | 524 kts | 119° |
| 2026-05-05 16:01 | 31.93447 | 24.59687 | 37114 ft | 524 kts | 120° |
| 2026-05-05 16:02 | 31.89940 | 24.67209 | 37114 ft | 524 kts | 120° |
| 2026-05-05 16:02 | 31.86453 | 24.74673 | 37104 ft | 524 kts | 120° |
| 2026-05-05 16:03 | 31.82913 | 24.82235 | 37112 ft | 524 kts | 120° |
| 2026-05-05 16:03 | 31.79412 | 24.89700 | 37112 ft | 525 kts | 120° |
| 2026-05-05 16:04 | 31.75882 | 24.97214 | 37114 ft | 525 kts | 120° |
| 2026-05-05 16:04 | 31.72350 | 25.04717 | 37112 ft | 525 kts | 120° |
| 2026-05-05 16:05 | 31.69200 | 25.12448 | 37111 ft | 525 kts | 110° |
| 2026-05-05 16:05 | 31.67292 | 25.20715 | 37111 ft | 525 kts | 98° |
| 2026-05-05 16:06 | 31.66300 | 25.29196 | 37117 ft | 525 kts | 96° |
| 2026-05-05 16:06 | 31.65346 | 25.37702 | 37111 ft | 526 kts | 96° |
| 2026-05-05 16:07 | 31.64339 | 25.46215 | 37105 ft | 527 kts | 97° |
| 2026-05-05 16:07 | 31.63297 | 25.54736 | 37120 ft | 528 kts | 97° |
| 2026-05-05 16:08 | 31.62246 | 25.63265 | 37120 ft | 529 kts | 97° |
| 2026-05-05 16:08 | 31.61192 | 25.71805 | 37120 ft | 529 kts | 97° |
| 2026-05-05 16:09 | 31.60132 | 25.80352 | 37123 ft | 529 kts | 97° |
| 2026-05-05 16:09 | 31.59068 | 25.88892 | 37117 ft | 530 kts | 97° |
| 2026-05-05 16:10 | 31.57998 | 25.97437 | 37121 ft | 529 kts | 97° |
| 2026-05-05 16:10 | 31.56600 | 26.05917 | 37121 ft | 530 kts | 103° |
| 2026-05-05 16:11 | 31.54831 | 26.14309 | 37124 ft | 531 kts | 103° |
| 2026-05-05 16:12 | 31.51301 | 26.31043 | 37132 ft | 531 kts | 103° |
| 2026-05-05 16:13 | 31.46927 | 26.52030 | 37128 ft | 530 kts | 103° |
| 2026-05-05 16:13 | 31.45166 | 26.60415 | 37132 ft | 530 kts | 104° |
| 2026-05-05 16:14 | 31.41627 | 26.77170 | 37130 ft | 530 kts | 104° |
| 2026-05-05 16:15 | 31.38066 | 26.93917 | 37130 ft | 530 kts | 104° |
| 2026-05-05 16:16 | 31.34483 | 27.10668 | 37129 ft | 531 kts | 104° |
| 2026-05-05 16:17 | 31.32881 | 27.23422 | 37133 ft | 529 kts | 86° |
| 2026-05-05 16:18 | 31.34027 | 27.31857 | 37130 ft | 524 kts | 71° |
| 2026-05-05 16:18 | 31.35007 | 27.35963 | 37135 ft | 524 kts | 71° |
| 2026-05-05 16:19 | 31.37972 | 27.48299 | 37131 ft | 526 kts | 71° |
| 2026-05-05 16:19 | 31.40814 | 27.60723 | 37129 ft | 528 kts | 72° |
| 2026-05-05 16:20 | 31.44559 | 27.77309 | 37129 ft | 529 kts | 72° |
| 2026-05-05 16:22 | 31.49244 | 27.98151 | 37127 ft | 529 kts | 72° |
| 2026-05-05 16:23 | 31.52970 | 28.14831 | 37129 ft | 529 kts | 72° |
| 2026-05-05 16:23 | 31.55753 | 28.27364 | 37133 ft | 530 kts | 72° |
| 2026-05-05 16:24 | 31.57304 | 28.34373 | 37127 ft | 530 kts | 72° |
| 2026-05-05 16:25 | 31.60056 | 28.46861 | 37031 ft | 529 kts | 72° |
| 2026-05-05 16:25 | 31.61903 | 28.55273 | 35650 ft | 534 kts | 72° |
| 2026-05-05 16:25 | 31.62823 | 28.59489 | 34910 ft | 534 kts | 72° |
| 2026-05-05 16:26 | 31.64655 | 28.67935 | 33436 ft | 534 kts | 72° |
| 2026-05-05 16:26 | 31.66481 | 28.76377 | 31964 ft | 533 kts | 72° |
| 2026-05-05 16:27 | 31.67390 | 28.80588 | 31226 ft | 532 kts | 72° |
| 2026-05-05 16:27 | 31.68296 | 28.84791 | 30489 ft | 530 kts | 72° |
| 2026-05-05 16:27 | 31.69197 | 28.88980 | 29752 ft | 529 kts | 72° |
| 2026-05-05 16:27 | 31.70090 | 28.93135 | 29013 ft | 527 kts | 72° |
| 2026-05-05 16:28 | 31.70984 | 28.97300 | 28266 ft | 525 kts | 72° |
| 2026-05-05 16:28 | 31.71826 | 29.01453 | 27510 ft | 522 kts | 77° |
| 2026-05-05 16:28 | 31.72102 | 29.05705 | 26736 ft | 524 kts | 91° |
| 2026-05-05 16:28 | 31.71635 | 29.09939 | 26010 ft | 523 kts | 103° |
| 2026-05-05 16:29 | 31.70531 | 29.13978 | 25259 ft | 517 kts | 115° |
| 2026-05-05 16:29 | 31.68973 | 29.17726 | 24534 ft | 511 kts | 118° |
| 2026-05-05 16:29 | 31.67385 | 29.21445 | 23790 ft | 508 kts | 118° |
| 2026-05-05 16:29 | 31.65813 | 29.25151 | 23054 ft | 506 kts | 118° |
| 2026-05-05 16:30 | 31.64310 | 29.28751 | 22253 ft | 477 kts | 117° |
| 2026-05-05 16:30 | 31.62900 | 29.32163 | 21476 ft | 454 kts | 117° |
| 2026-05-05 16:30 | 31.61562 | 29.35424 | 20706 ft | 434 kts | 117° |
| 2026-05-05 16:30 | 31.60283 | 29.38550 | 19947 ft | 417 kts | 117° |
| 2026-05-05 16:31 | 31.59051 | 29.41555 | 19195 ft | 402 kts | 117° |
| 2026-05-05 16:31 | 31.57858 | 29.44463 | 18436 ft | 390 kts | 117° |
| 2026-05-05 16:31 | 31.56692 | 29.47300 | 17689 ft | 384 kts | 117° |
| 2026-05-05 16:31 | 31.55534 | 29.50109 | 16940 ft | 382 kts | 117° |
| 2026-05-05 16:32 | 31.54397 | 29.52867 | 16219 ft | 379 kts | 117° |
| 2026-05-05 16:32 | 31.53259 | 29.55626 | 15480 ft | 374 kts | 116° |
| 2026-05-05 16:32 | 31.52134 | 29.58352 | 14736 ft | 369 kts | 116° |
| 2026-05-05 16:32 | 31.51026 | 29.61037 | 13984 ft | 363 kts | 116° |
| 2026-05-05 16:33 | 31.49931 | 29.63684 | 13248 ft | 358 kts | 116° |
| 2026-05-05 16:33 | 31.48852 | 29.66291 | 12497 ft | 353 kts | 116° |
| 2026-05-05 16:33 | 31.47789 | 29.68862 | 11754 ft | 348 kts | 116° |
| 2026-05-05 16:33 | 31.46739 | 29.71394 | 11008 ft | 343 kts | 115° |
| 2026-05-05 16:34 | 31.45706 | 29.73893 | 10263 ft | 339 kts | 115° |
| 2026-05-05 16:34 | 31.44687 | 29.76355 | 9510 ft | 334 kts | 115° |
| 2026-05-05 16:34 | 31.43682 | 29.78783 | 8774 ft | 330 kts | 115° |
| 2026-05-05 16:34 | 31.42684 | 29.81185 | 8023 ft | 326 kts | 115° |
| 2026-05-05 16:35 | 31.41698 | 29.83555 | 7279 ft | 321 kts | 115° |
| 2026-05-05 16:35 | 31.40737 | 29.85872 | 6531 ft | 312 kts | 115° |
| 2026-05-05 16:35 | 31.39803 | 29.88123 | 5777 ft | 303 kts | 115° |
| 2026-05-05 16:35 | 31.38891 | 29.90318 | 5021 ft | 296 kts | 115° |
| 2026-05-05 16:36 | 31.37998 | 29.92461 | 4268 ft | 290 kts | 115° |
| 2026-05-05 16:36 | 31.37139 | 29.94526 | 3976 ft | 272 kts | 115° |
| 2026-05-05 16:36 | 31.36281 | 29.96587 | 3683 ft | 288 kts | 115° |
| 2026-05-05 16:36 | 31.35407 | 29.98680 | 3382 ft | 285 kts | 115° |
| 2026-05-05 16:37 | 31.34541 | 30.00762 | 3141 ft | 279 kts | 116° |
| 2026-05-05 16:37 | 31.33723 | 30.02708 | 2940 ft | 254 kts | 115° |
| 2026-05-05 16:37 | 31.32991 | 30.04463 | 2882 ft | 227 kts | 115° |
| 2026-05-05 16:37 | 31.32333 | 30.06036 | 2749 ft | 204 kts | 117° |
| 2026-05-05 16:38 | 31.31434 | 30.07216 | 2554 ft | 192 kts | 158° |
| 2026-05-05 16:38 | 31.30155 | 30.07511 | 2466 ft | 190 kts | 191° |
| 2026-05-05 16:38 | 31.28937 | 30.07097 | 2303 ft | 177 kts | 216° |
| 2026-05-05 16:38 | 31.28055 | 30.06176 | 2169 ft | 170 kts | 230° |
| 2026-05-05 16:39 | 31.27216 | 30.05193 | 2036 ft | 171 kts | 229° |
| 2026-05-05 16:39 | 31.26379 | 30.04219 | 1883 ft | 168 kts | 229° |
| 2026-05-05 16:39 | 31.25552 | 30.03259 | 1769 ft | 169 kts | 229° |
| 2026-05-05 16:39 | 31.24727 | 30.02295 | 1561 ft | 171 kts | 228° |
| 2026-05-05 16:40 | 31.23893 | 30.01322 | 1346 ft | 168 kts | 228° |
| 2026-05-05 16:40 | 31.23070 | 30.00361 | 1135 ft | 167 kts | 228° |
| 2026-05-05 16:40 | 31.22250 | 29.99402 | 917 ft | 167 kts | 228° |
| 2026-05-05 16:40 | 31.21437 | 29.98453 | 690 ft | 166 kts | 228° |
| 2026-05-05 16:41 | 31.20618 | 29.97498 | 470 ft | 166 kts | 227° |
| 2026-05-05 16:41 | 31.19799 | 29.96544 | 261 ft | 166 kts | 227° |
| 2026-05-05 16:41 | 31.18998 | 29.95592 | 63 ft | 159 kts | 226° |
| 2026-05-05 16:41 | 31.18281 | 29.94769 | 13 ft | 110 kts | 224° |
| 2026-05-05 16:42 | 31.18074 | 29.94530 | 12 ft | 0 kts | 225° |